Latest Weather Observations for Alva Beach

IDQ60801

Issued at 3:05 pm EST Thursday 31 July 2014 (issued every 30 minutes, with the page automatically refreshed every 10 minutes)

About weather observations | Map of weather stations | Latest weather observations for QLD | Other Formats
Station Details ID: 033295 Name: ALVA BEACH Lat: -19.46 Lon: 147.48 Height: 7.5 m
Data from the previous 72 hours. | See also: Recent months at Alva Beach
Date/Time
EST
Temp
°C
App
Temp
°C
Dew
Point
Rel
Hum
%
Delta-T
°C
Wind Press
QNH
hPa
Press
MSL
hPa
Rain
since 9 am
mm
Dir
 
Spd
km/h
Gust
km/h
Spd
kts
Gust
kts
31/03:00pm 21.9 19.7 15.0 65 4.1 E 20 26 11 14 1015.7 1015.7 0.0
31/02:30pm 21.9 19.8 14.8 64 4.2 E 19 24 10 13 1016.0 - 0.0
31/02:00pm 22.0 20.3 14.6 63 4.3 E 17 24 9 13 1016.3 1016.3 0.0
31/01:30pm 22.8 22.0 15.1 62 4.6 E 13 19 7 10 1016.9 - 0.0
31/01:00pm 23.2 22.3 15.8 63 4.5 E 15 22 8 12 1017.3 1017.3 0.0
31/12:30pm 22.9 22.6 15.5 63 4.4 ESE 11 19 6 10 1017.7 - 0.0
31/12:00pm 22.8 22.4 15.1 62 4.6 ESE 11 19 6 10 1018.3 1018.3 0.0
31/11:30am 22.3 21.2 14.2 60 4.7 ESE 13 19 7 10 1018.7 - 0.0
31/11:00am 22.1 21.5 14.5 62 4.5 ESE 11 19 6 10 1019.2 1019.2 0.0
31/10:30am 20.7 19.1 15.0 70 3.4 ESE 17 24 9 13 1019.4 - 0.0
31/10:00am 20.4 19.0 14.5 69 3.4 SE 15 24 8 13 1019.6 1019.6 0.0
31/09:30am 19.9 18.0 14.3 70 3.2 SE 17 26 9 14 1019.7 - 0.0
31/09:00am 20.1 19.7 14.2 69 3.4 SE 9 15 5 8 1019.6 1019.6 0.0
31/08:30am 18.3 18.2 13.8 75 2.6 S 7 11 4 6 1019.5 - 0.0
31/08:00am 16.7 16.4 13.4 81 1.8 S 7 13 4 7 1019.2 1019.2 0.0
31/07:30am 15.1 14.4 13.1 88 1.1 S 9 13 5 7 1019.1 - 0.0
31/07:00am 14.4 13.6 13.0 91 0.8 S 9 13 5 7 1018.8 1018.8 0.0
31/06:30am 14.1 13.3 13.0 93 0.6 S 9 13 5 7 1018.6 - 0.0
31/06:00am 13.8 12.9 12.5 92 0.7 S 9 13 5 7 1018.4 1018.4 0.0
31/05:30am 13.7 12.7 12.3 91 0.8 S 9 15 5 8 1018.2 - 0.0
31/05:00am 13.9 12.6 12.5 91 0.8 S 11 15 6 8 1018.1 1018.1 0.0
31/04:30am 14.0 12.7 12.4 90 0.9 S 11 15 6 8 1018.0 - 0.0
31/04:00am 13.9 12.9 12.3 90 0.9 S 9 13 5 7 1018.1 1018.1 0.0
31/03:30am 14.3 13.7 12.2 87 1.1 S 7 11 4 6 1018.2 - 0.0
31/03:00am 15.4 14.4 12.3 82 1.7 S 9 11 5 6 1018.4 1018.4 0.0
31/02:30am 18.4 18.0 15.3 82 1.8 ESE 11 17 6 9 1018.5 - 0.0
31/02:00am 18.5 17.7 15.2 81 1.9 ESE 13 20 7 11 1018.6 1018.6 0.0
31/01:30am 19.1 17.6 15.2 78 2.3 ESE 17 24 9 13 1018.9 - 0.0
31/01:00am 19.4 17.5 15.1 76 2.5 E 19 28 10 15 1019.0 1019.0 0.0
31/12:30am 19.6 17.6 15.0 75 2.7 E 19 26 10 14 1019.2 - 0.0
31/12:00am 19.7 17.7 14.9 74 2.8 E 19 30 10 16 1019.2 1019.2 0.0
 
Date/Time
EST
Temp
°C
App
Temp
°C
Dew
Point
Rel
Hum
%
Delta-T
°C
Wind Press
QNH
hPa
Press
MSL
hPa
Rain
since 9 am
mm
Dir
 
Spd
km/h
Gust
km/h
Spd
kts
Gust
kts
30/11:30pm 19.5 17.7 15.4 77 2.4 E 19 26 10 14 1019.2 - 0.0
30/11:00pm 19.7 17.7 15.6 77 2.4 E 20 30 11 16 1019.4 1019.4 0.0
30/10:30pm 19.7 17.5 14.9 74 2.8 E 20 30 11 16 1019.4 - 0.0
30/10:00pm 19.9 17.4 15.1 74 2.8 E 22 30 12 16 1019.5 1019.5 0.0
30/09:30pm 20.0 17.4 15.0 73 2.9 E 22 32 12 17 1019.6 - 0.0
30/09:00pm 20.0 16.6 14.8 72 3.0 E 26 33 14 18 1019.3 1019.3 0.0
30/08:30pm 20.1 16.3 14.7 71 3.2 E 28 35 15 19 1019.1 - 0.0
30/08:00pm 20.2 17.0 15.2 73 2.9 E 26 33 14 18 1018.9 1018.9 0.0
30/07:30pm 20.2 16.8 14.8 71 3.2 E 26 33 14 18 1018.6 - 0.0
30/07:00pm 20.1 16.1 14.0 68 3.5 E 28 37 15 20 1018.4 1018.4 0.0
30/06:30pm 20.3 17.0 14.9 71 3.2 E 26 35 14 19 1018.0 - 0.0
30/06:00pm 20.2 16.4 14.8 71 3.2 E 28 35 15 19 1017.9 1017.9 0.0
30/05:30pm 20.2 17.3 15.2 73 2.9 E 24 33 13 18 1017.7 - 0.0
30/05:00pm 20.6 17.8 15.4 72 3.1 E 24 33 13 18 1017.7 1017.7 0.0
30/04:30pm 21.0 18.5 15.1 69 3.5 E 22 30 12 16 1017.7 - 0.0
30/04:00pm 21.2 18.3 15.1 68 3.6 E 24 33 13 18 1017.6 1017.6 0.0
30/03:30pm 21.4 18.4 14.8 66 3.9 E 24 32 13 17 1017.5 - 0.0
30/03:00pm 21.4 18.6 14.3 64 4.1 E 22 30 12 16 1017.6 1017.6 0.0
30/02:30pm 21.7 18.9 14.4 63 4.3 E 22 32 12 17 1017.9 - 0.0
30/02:00pm 21.8 19.3 14.2 62 4.4 E 20 30 11 16 1018.2 1018.2 0.0
30/01:30pm 23.0 20.9 15.3 62 4.6 E 20 30 11 16 1018.6 - 0.0
30/01:00pm 23.3 21.1 14.8 59 5.0 E 20 30 11 16 1019.1 1019.1 0.0
30/12:30pm 23.0 21.0 14.0 57 5.3 E 17 28 9 15 1019.5 - 0.0
30/12:00pm 22.5 20.4 13.6 57 5.1 ESE 17 24 9 13 1020.2 1020.2 0.0
30/11:30am 22.8 21.2 13.8 57 5.2 ESE 15 22 8 12 1020.5 - 0.0
30/11:00am 22.4 21.4 14.5 61 4.6 ESE 13 28 7 15 1021.1 1021.1 0.0
30/10:30am 21.9 20.3 13.8 60 4.7 ESE 15 24 8 13 1021.4 - 0.0
30/10:00am 21.2 19.4 14.4 65 4.0 ESE 17 24 9 13 1021.5 1021.5 0.0
30/09:30am 20.4 18.8 13.8 66 3.8 SE 15 26 8 14 1021.6 - 0.0
30/09:00am 20.0 18.6 14.6 71 3.1 SE 15 26 8 14 1021.4 1021.4 0.0
30/08:30am 17.9 17.9 13.6 76 2.4 SSW 6 7 3 4 1021.3 - 0.0
30/08:00am 15.1 14.5 12.2 83 1.6 SSW 7 11 4 6 1021.2 1021.2 0.0
30/07:30am 13.6 12.9 12.0 90 0.9 SSW 7 11 4 6 1020.8 - 0.0
30/07:00am 12.5 11.6 11.2 92 0.7 SSW 7 11 4 6 1020.8 1020.8 0.0
30/06:30am 12.4 11.4 11.0 91 0.7 SW 7 11 4 6 1020.5 - 0.0
30/06:00am 12.6 11.5 10.8 89 0.9 WSW 7 11 4 6 1020.2 1020.2 0.0
30/05:30am 13.9 13.4 12.5 91 0.8 S 7 11 4 6 1019.7 - 0.0
30/05:00am 14.2 13.2 12.2 88 1.1 S 9 13 5 7 1019.5 1019.5 0.0
30/04:30am 14.5 14.0 12.7 89 1.0 S 7 11 4 6 1019.3 - 0.0
30/04:00am 14.8 14.3 12.5 86 1.3 S 7 15 4 8 1019.2 1019.2 0.0
30/03:30am 16.5 15.1 12.1 75 2.4 SSE 11 24 6 13 1019.2 - 0.0
30/03:00am 18.4 16.6 14.5 78 2.2 SE 17 24 9 13 1019.3 1019.3 0.0
30/02:30am 18.3 17.3 14.6 79 2.1 ESE 13 24 7 13 1019.4 - 0.0
30/02:00am 18.5 17.8 14.4 77 2.4 ESE 11 17 6 9 1019.7 1019.7 0.0
30/01:30am 18.6 18.0 14.5 77 2.4 ESE 11 22 6 12 1019.8 - 0.0
30/01:00am 19.0 17.9 14.3 74 2.7 ESE 13 20 7 11 1020.0 1020.0 0.0
30/12:30am 19.9 17.7 13.4 66 3.7 E 17 24 9 13 1020.1 - 0.0
30/12:00am 20.0 18.2 13.2 65 3.9 E 15 20 8 11 1020.3 1020.3 0.0
 
Date/Time
EST
Temp
°C
App
Temp
°C
Dew
Point
Rel
Hum
%
Delta-T
°C
Wind Press
QNH
hPa
Press
MSL
hPa
Rain
since 9 am
mm
Dir
 
Spd
km/h
Gust
km/h
Spd
kts
Gust
kts
29/11:30pm 19.8 17.7 13.7 68 3.5 E 17 24 9 13 1020.4 - 0.0
29/11:00pm 20.2 18.1 13.6 66 3.8 E 17 24 9 13 1020.6 1020.6 0.0
29/10:30pm 20.1 17.5 13.3 65 3.9 E 19 24 10 13 1020.9 - 0.0
29/10:00pm 20.2 17.7 14.1 68 3.5 E 20 28 11 15 1020.9 1020.9 0.0
29/09:30pm 20.2 17.8 14.3 69 3.4 E 20 28 11 15 1020.8 - 0.0
29/09:00pm 20.1 17.5 13.8 67 3.6 E 20 28 11 15 1020.7 1020.7 0.0
29/08:30pm 20.0 17.6 13.9 68 3.5 E 19 26 10 14 1020.4 - 0.0
29/08:00pm 20.1 17.5 13.8 67 3.6 E 20 28 11 15 1020.4 1020.4 0.0
29/07:30pm 20.3 17.3 13.7 66 3.8 E 22 30 12 16 1020.1 - 0.0
29/07:00pm 20.4 17.0 13.8 66 3.8 E 24 30 13 16 1019.9 1019.9 0.0
29/06:30pm 20.4 16.2 13.6 65 3.9 ENE 28 35 15 19 1019.4 - 0.0
29/06:00pm 20.4 16.9 14.5 69 3.4 E 26 33 14 18 1019.1 1019.1 0.0
29/05:30pm 20.7 16.7 14.1 66 3.8 ENE 28 37 15 20 1018.9 - 0.0
29/05:00pm 20.7 16.1 13.6 64 4.1 ENE 30 39 16 21 1018.6 1018.6 0.0
29/04:30pm 21.1 17.0 13.8 63 4.2 ENE 28 35 15 19 1018.4 - 0.0
29/04:00pm 21.4 18.3 14.6 65 4.0 E 24 33 13 18 1018.5 1018.5 0.0
29/03:30pm 21.5 18.4 14.6 65 4.0 E 24 32 13 17 1018.5 - 0.0
29/03:00pm 22.0 19.3 14.6 63 4.3 E 22 30 12 16 1018.6 1018.6 0.0
29/02:30pm 21.9 18.8 13.5 59 4.8 E 22 30 12 16 1018.8 - 0.0
29/02:00pm 21.6 18.4 13.2 59 4.8 E 22 30 12 16 1019.1 1019.1 0.0
29/01:30pm 21.5 18.7 13.2 59 4.8 E 20 28 11 15 1019.6 - 0.0
29/01:00pm 22.0 19.1 14.1 61 4.6 E 22 28 12 15 1019.9 1019.9 0.0
29/12:30pm 21.6 18.4 13.2 59 4.8 E 22 28 12 15 1020.4 - 0.0
29/12:00pm 22.0 19.2 12.5 54 5.4 E 19 26 10 14 1020.8 1020.8 0.0
29/11:30am 22.5 19.5 12.4 52 5.7 ENE 20 24 11 13 1021.0 - 0.0
29/11:00am 23.3 22.3 11.0 46 6.8 E 7 15 4 8 1020.8 1020.8 0.0
29/10:30am 22.9 21.7 10.3 45 6.9 SE 7 15 4 8 1021.1 - 0.0
29/10:00am 21.7 20.4 11.4 52 5.7 SE 9 13 5 7 1021.5 1021.5 0.0
29/09:30am 20.5 19.2 11.2 55 5.1 SE 9 17 5 9 1021.4 - 0.0
29/09:00am 19.6 18.5 11.9 61 4.3 SE 9 13 5 7 1021.5 1021.5 0.0
29/08:30am 17.8 16.9 12.5 71 2.9 S 9 15 5 8 1021.4 - 0.0
29/08:00am 16.0 15.5 12.7 81 1.8 S 7 11 4 6 1021.4 1021.4 0.0
29/07:30am 14.5 13.5 12.4 87 1.1 S 9 13 5 7 1021.1 - 0.0
29/07:00am 13.9 12.9 12.3 90 0.9 S 9 13 5 7 1020.8 1020.8 0.0
29/06:30am 13.5 12.4 12.1 91 0.8 S 9 17 5 9 1020.8 - 0.0
29/06:00am 13.4 11.9 11.8 90 0.9 S 11 13 6 7 1020.7 1020.7 0.0
29/05:30am 13.6 12.5 11.8 89 1.0 S 9 13 5 7 1020.7 - 0.0
29/05:00am 14.0 13.0 12.2 89 1.0 S 9 13 5 7 1020.4 1020.4 0.0
29/04:30am 14.0 13.0 12.2 89 1.0 S 9 13 5 7 1020.3 - 0.0
29/04:00am 14.0 13.0 12.2 89 1.0 S 9 11 5 6 1020.2 1020.2 0.0
29/03:30am 14.1 13.0 11.8 86 1.2 S 9 11 5 6 1020.2 - 0.0
29/03:00am 15.2 14.0 11.6 79 1.9 S 9 13 5 7 1020.1 1020.1 0.0
29/02:30am 18.5 16.2 10.3 59 4.4 E 13 20 7 11 1020.1 - 0.0
29/02:00am 18.3 16.0 10.4 60 4.2 E 13 20 7 11 1020.2 1020.2 0.0
29/01:30am 18.9 16.4 11.0 60 4.3 E 15 20 8 11 1020.3 - 0.0
29/01:00am 19.1 16.4 11.7 62 4.1 E 17 22 9 12 1020.5 1020.5 0.0
29/12:30am 19.4 16.6 11.4 60 4.4 E 17 24 9 13 1020.6 - 0.0
29/12:00am 19.9 17.0 12.4 62 4.2 E 19 24 10 13 1020.6 1020.6 0.0
 
Date/Time
EST
Temp
°C
App
Temp
°C
Dew
Point
Rel
Hum
%
Delta-T
°C
Wind Press
QNH
hPa
Press
MSL
hPa
Rain
since 9 am
mm
Dir
 
Spd
km/h
Gust
km/h
Spd
kts
Gust
kts
28/11:30pm 20.0 17.2 12.5 62 4.2 E 19 26 10 14 1020.7 - 0.0
28/11:00pm 20.1 17.6 13.6 66 3.7 E 19 26 10 14 1020.7 1020.7 0.0
28/10:30pm 20.1 17.7 13.8 67 3.6 E 19 28 10 15 1020.7 - 0.0
28/10:00pm 20.1 17.1 13.8 67 3.6 E 22 30 12 16 1020.8 1020.8 0.0
28/09:30pm 20.1 16.6 13.3 65 3.9 E 24 30 13 16 1020.7 - 0.0
28/09:00pm 20.1 16.7 13.8 67 3.6 E 24 33 13 18 1020.7 1020.7 0.0
28/08:30pm 20.1 16.5 14.2 69 3.4 E 26 33 14 18 1020.5 - 0.0
28/08:00pm 19.9 16.2 13.8 68 3.5 E 26 33 14 18 1020.4 1020.4 0.0
28/07:30pm 20.1 16.8 14.9 72 3.0 E 26 32 14 17 1020.2 - 0.0
28/07:00pm 20.1 17.2 15.1 73 2.9 E 24 30 13 16 1019.9 1019.9 0.0
28/06:30pm 20.1 17.1 14.9 72 3.0 E 24 30 13 16 1019.7 - 0.0
28/06:00pm 20.1 17.1 14.7 71 3.1 E 24 32 13 17 1019.4 1019.4 0.0
28/05:30pm 20.2 18.1 15.2 73 2.9 E 20 28 11 15 1019.1 - 0.0
28/05:00pm 20.6 18.6 15.6 73 3.0 E 20 26 11 14 1019.1 1019.1 0.0
28/04:30pm 20.9 18.7 15.0 69 3.5 E 20 26 11 14 1019.0 - 0.0
28/04:00pm 21.3 19.2 15.2 68 3.6 E 20 28 11 15 1018.9 1018.9 0.0
28/03:30pm 21.5 19.4 15.3 68 3.7 E 20 28 11 15 1018.9 - 0.0

Other Formats:

Comma delimited format used in spreadsheet applications
http://www.bom.gov.au/fwo/IDQ60801/IDQ60801.95296.axf

JavaScript Object Notation format (JSON) in row-major order
http://www.bom.gov.au/fwo/IDQ60801/IDQ60801.95296.json